Time;durP1;ratioP1;P1;durP2;ratioP2;P2;SDS_P1;SDS_P2;PMS_P1;PMS_P2;Temp;Humidity;BMP_temperature;BMP_pressure;BME280_temperature;BME280_humidity;BME280_pressure;Samples;Min_cycle;Max_cycle;Signal;HPM_P1;HPM_P2
2023/03/29 00:00:15;;;;;;;15.75;4.90;;;6.30;99.90;;;;;;5026847;28;20116;-71
2023/03/29 00:02:42;;;;;;;11.00;5.32;;;6.30;99.90;;;;;;5027537;28;20029;-71
2023/03/29 00:05:08;;;;;;;10.65;4.88;;;6.30;99.90;;;;;;5026036;28;20030;-72
2023/03/29 00:07:35;;;;;;;11.82;4.95;;;6.30;99.90;;;;;;4990447;28;1072493;-71
2023/03/29 00:10:04;;;;;;;14.32;5.80;;;6.30;99.90;;;;;;5028314;28;20179;-71
2023/03/29 00:12:30;;;;;;;10.85;5.45;;;6.30;99.90;;;;;;5026887;28;20414;-71
2023/03/29 00:14:56;;;;;;;11.85;6.00;;;6.20;99.90;;;;;;5026912;28;20030;-71
2023/03/29 00:17:21;;;;;;;15.57;6.03;;;6.20;99.90;;;;;;5026896;28;20517;-71
2023/03/29 00:19:47;;;;;;;17.08;6.50;;;6.20;99.90;;;;;;5028332;28;20109;-71
2023/03/29 00:22:13;;;;;;;13.35;5.82;;;6.20;99.90;;;;;;5028026;28;20042;-72
2023/03/29 00:24:39;;;;;;;10.63;5.43;;;6.20;99.90;;;;;;5026765;28;20026;-71
2023/03/29 00:27:05;;;;;;;13.27;5.20;;;6.10;99.90;;;;;;5027605;28;20033;-71
2023/03/29 00:29:31;;;;;;;12.40;5.07;;;6.10;99.90;;;;;;5027663;28;20025;-70
2023/03/29 00:31:57;;;;;;;15.20;5.32;;;6.10;99.90;;;;;;5028005;28;20045;-71
2023/03/29 00:34:23;;;;;;;13.85;5.80;;;6.10;99.90;;;;;;5027945;28;20029;-72
2023/03/29 00:36:49;;;;;;;16.67;5.97;;;6.00;99.90;;;;;;5026610;28;20040;-71
2023/03/29 00:39:25;;;;;;;11.20;4.68;;;6.00;99.90;;;;;;5026807;28;20022;-71
2023/03/29 00:41:51;;;;;;;14.13;5.50;;;6.00;99.90;;;;;;5027512;28;20026;-71
2023/03/29 00:44:55;;;;;;;10.52;5.35;;;6.00;99.90;;;;;;5027709;28;20037;-71
2023/03/29 00:48:02;;;;;;;13.38;5.18;;;6.00;99.90;;;;;;5027971;28;20080;-71
2023/03/29 00:50:38;;;;;;;14.77;5.75;;;6.00;99.90;;;;;;4986166;28;20030;-71
2023/03/29 00:53:20;;;;;;;12.75;5.32;;;6.00;99.90;;;;;;5021981;28;20045;-71
2023/03/29 00:55:52;;;;;;;12.35;5.68;;;6.00;99.90;;;;;;5027267;28;20051;-72
2023/03/29 00:58:26;;;;;;;15.43;5.55;;;5.90;99.90;;;;;;5027318;28;20026;-71
2023/03/29 01:00:57;;;;;;;16.60;5.47;;;6.10;99.90;;;;;;5025752;28;20042;-71
2023/03/29 01:03:29;;;;;;;16.98;5.53;;;5.90;99.90;;;;;;5026124;28;20034;-71
2023/03/29 01:05:59;;;;;;;13.88;5.47;;;5.90;99.90;;;;;;5027476;28;20026;-71
2023/03/29 01:08:34;;;;;;;13.55;5.03;;;5.90;99.90;;;;;;5027106;28;20050;-71
2023/03/29 01:11:07;;;;;;;13.45;5.47;;;5.90;99.90;;;;;;5025683;28;20033;-71
2023/03/29 01:13:44;;;;;;;12.75;5.70;;;5.90;99.90;;;;;;5027523;28;20077;-71
2023/03/29 01:16:11;;;;;;;17.63;6.70;;;5.90;99.90;;;;;;5026124;28;20548;-72
2023/03/29 01:18:37;;;;;;;16.38;7.18;;;5.80;99.90;;;;;;5026039;28;20048;-71
2023/03/29 01:21:09;;;;;;;15.25;6.65;;;5.80;99.90;;;;;;5027034;28;20042;-71
2023/03/29 01:23:46;;;;;;;13.38;6.70;;;5.80;99.90;;;;;;5027256;28;20037;-71
2023/03/29 01:26:37;;;;;;;17.25;6.88;;;5.70;99.90;;;;;;5026869;28;20475;-71
2023/03/29 01:29:12;;;;;;;11.85;6.40;;;5.70;99.90;;;;;;5027150;28;20386;-71
2023/03/29 01:31:46;;;;;;;18.77;6.57;;;5.70;99.90;;;;;;5026890;28;20028;-71
2023/03/29 01:34:45;;;;;;;17.30;6.10;;;5.80;99.90;;;;;;5027017;28;20038;-71
2023/03/29 01:37:35;;;;;;;15.13;6.57;;;5.70;99.90;;;;;;5021012;28;20466;-71
2023/03/29 01:40:01;;;;;;;16.40;6.68;;;5.60;99.90;;;;;;5014050;28;20030;-70
2023/03/29 01:42:57;;;;;;;12.68;6.07;;;5.60;99.90;;;;;;5025982;28;20065;-70
2023/03/29 01:45:58;;;;;;;12.73;6.65;;;5.50;99.90;;;;;;5022222;28;20034;-71
2023/03/29 01:48:50;;;;;;;13.43;6.63;;;5.50;99.90;;;;;;5022279;28;20026;-70
2023/03/29 01:51:36;;;;;;;17.67;7.03;;;5.40;99.90;;;;;;5017220;28;20049;-70
2023/03/29 01:54:17;;;;;;;13.13;6.55;;;5.40;99.90;;;;;;5024419;28;20505;-70
2023/03/29 01:56:45;;;;;;;13.55;7.07;;;5.40;99.90;;;;;;5025844;28;20033;-70
2023/03/29 01:59:27;;;;;;;15.65;7.15;;;5.30;99.90;;;;;;5024545;28;20026;-71
2023/03/29 02:01:57;;;;;;;13.27;7.03;;;5.30;99.90;;;;;;5021717;28;20105;-70
2023/03/29 02:04:33;;;;;;;17.48;7.38;;;5.30;99.90;;;;;;5025234;28;20029;-70
2023/03/29 02:07:01;;;;;;;12.10;7.10;;;5.30;99.90;;;;;;5024084;28;20100;-70
2023/03/29 02:09:32;;;;;;;20.35;7.20;;;5.30;99.90;;;;;;5025618;28;20022;-70
2023/03/29 02:11:59;;;;;;;20.17;6.95;;;5.20;99.90;;;;;;5020746;28;20050;-71
2023/03/29 02:14:25;;;;;;;14.93;7.50;;;5.20;99.90;;;;;;5025441;28;20022;-71
2023/03/29 02:16:51;;;;;;;19.50;7.75;;;5.10;99.90;;;;;;5025341;28;20383;-70
2023/03/29 02:19:18;;;;;;;15.38;7.00;;;5.10;99.90;;;;;;5034918;28;20056;-72
2023/03/29 02:22:03;;;;;;;21.33;8.25;;;5.10;99.90;;;;;;5025224;28;20034;-71
2023/03/29 02:24:31;;;;;;;16.35;7.50;;;5.10;99.90;;;;;;5022772;28;20028;-70
2023/03/29 02:26:57;;;;;;;14.75;7.70;;;5.00;99.90;;;;;;5025386;28;20491;-70
2023/03/29 02:29:23;;;;;;;14.93;7.45;;;5.00;99.90;;;;;;5021230;28;20028;-70
2023/03/29 02:31:59;;;;;;;17.27;7.60;;;4.90;99.90;;;;;;5024995;28;20033;-71
2023/03/29 02:34:36;;;;;;;17.30;7.95;;;4.90;99.90;;;;;;5024985;28;20038;-70
2023/03/29 02:37:16;;;;;;;17.23;7.93;;;4.90;99.90;;;;;;5028119;28;20053;-70
2023/03/29 02:39:42;;;;;;;14.77;6.63;;;4.80;99.90;;;;;;5019738;28;20018;-71
2023/03/29 02:42:08;;;;;;;21.05;8.02;;;4.90;99.90;;;;;;5024343;28;20061;-72
2023/03/29 02:44:38;;;;;;;19.80;7.50;;;4.90;99.90;;;;;;5022836;28;20026;-71
2023/03/29 02:47:23;;;;;;;19.55;7.43;;;4.80;99.90;;;;;;5022810;28;20490;-71
2023/03/29 02:49:49;;;;;;;16.30;7.22;;;4.80;99.90;;;;;;5023589;28;20026;-71
2023/03/29 02:52:21;;;;;;;19.40;8.07;;;4.80;99.90;;;;;;5024726;28;20037;-71
2023/03/29 02:54:49;;;;;;;14.93;8.25;;;4.80;99.90;;;;;;5023077;28;20033;-71
2023/03/29 02:57:14;;;;;;;18.05;8.07;;;4.90;99.90;;;;;;5024802;28;20086;-72
2023/03/29 02:59:42;;;;;;;13.68;7.10;;;4.80;99.90;;;;;;5031812;28;20084;-72
2023/03/29 03:02:10;;;;;;;18.33;8.40;;;4.80;99.90;;;;;;5024645;28;20065;-70
2023/03/29 03:04:36;;;;;;;18.55;8.00;;;4.90;99.90;;;;;;5023520;28;20750;-70
2023/03/29 03:07:04;;;;;;;15.57;7.13;;;4.90;99.90;;;;;;5024255;28;20457;-71
2023/03/29 03:09:29;;;;;;;20.27;7.88;;;4.90;99.90;;;;;;5039746;28;20033;-71
2023/03/29 03:11:55;;;;;;;17.70;7.65;;;4.90;99.90;;;;;;5032971;28;20030;-70
2023/03/29 03:14:21;;;;;;;23.70;8.40;;;4.90;99.90;;;;;;5006353;28;20033;-70
2023/03/29 03:16:47;;;;;;;16.30;7.93;;;4.90;99.90;;;;;;5005440;28;20029;-70
2023/03/29 03:19:14;;;;;;;17.15;7.45;;;4.90;99.90;;;;;;5005544;28;20042;-70
2023/03/29 03:21:39;;;;;;;16.35;8.45;;;4.90;99.90;;;;;;5005498;28;20038;-71
2023/03/29 03:24:06;;;;;;;18.10;7.93;;;4.90;99.90;;;;;;5005113;28;20570;-70
2023/03/29 03:26:32;;;;;;;18.55;8.40;;;4.90;99.90;;;;;;5004488;28;20826;-71
2023/03/29 03:29:10;;;;;;;22.92;8.90;;;4.90;99.90;;;;;;5005605;28;20156;-71
2023/03/29 03:31:36;;;;;;;20.30;9.15;;;4.90;99.90;;;;;;5023866;28;20026;-71
2023/03/29 03:34:01;;;;;;;18.83;9.43;;;4.90;99.90;;;;;;5024833;28;20505;-71
2023/03/29 03:36:27;;;;;;;22.20;10.02;;;4.90;99.90;;;;;;5024860;28;20040;-71
2023/03/29 03:38:53;;;;;;;20.70;10.25;;;4.90;99.90;;;;;;5024713;28;20022;-71
2023/03/29 03:41:19;;;;;;;19.25;9.85;;;5.00;99.90;;;;;;5024602;28;20041;-71
2023/03/29 03:43:47;;;;;;;26.27;11.45;;;4.90;99.90;;;;;;5024792;28;20430;-72
2023/03/29 03:46:15;;;;;;;23.52;11.13;;;4.90;99.90;;;;;;5024995;28;20026;-71
2023/03/29 03:48:40;;;;;;;17.90;10.45;;;4.90;99.90;;;;;;5025090;28;20037;-71
2023/03/29 03:51:06;;;;;;;22.83;11.25;;;4.90;99.90;;;;;;5024885;28;20029;-71
2023/03/29 03:53:32;;;;;;;20.70;11.02;;;4.90;99.90;;;;;;5024500;28;20105;-71
2023/03/29 03:56:00;;;;;;;26.23;12.43;;;4.90;99.90;;;;;;5024744;28;20463;-71
2023/03/29 03:58:26;;;;;;;24.35;11.63;;;5.00;99.90;;;;;;5024612;28;20463;-71
2023/03/29 04:00:53;;;;;;;31.10;13.48;;;4.90;99.90;;;;;;5023870;28;20102;-72
2023/03/29 04:03:19;;;;;;;23.13;12.50;;;4.90;99.90;;;;;;5022604;28;20018;-71
2023/03/29 04:05:45;;;;;;;29.38;13.65;;;5.00;99.90;;;;;;5005044;28;20065;-70
2023/03/29 04:08:12;;;;;;;31.77;13.75;;;4.90;99.90;;;;;;5004535;28;20066;-72
2023/03/29 04:10:38;;;;;;;28.35;14.25;;;5.00;99.90;;;;;;5003679;28;20041;-71
2023/03/29 04:13:04;;;;;;;32.65;14.60;;;5.00;99.90;;;;;;5004560;28;20026;-71
2023/03/29 04:15:32;;;;;;;29.88;15.45;;;5.00;99.90;;;;;;5004783;28;20097;-71
2023/03/29 04:17:59;;;;;;;27.98;14.60;;;5.00;99.90;;;;;;5004854;28;20026;-71
2023/03/29 04:20:26;;;;;;;35.38;16.50;;;5.00;99.90;;;;;;5004182;28;20030;-71
2023/03/29 04:22:52;;;;;;;30.38;16.25;;;5.00;99.90;;;;;;5003538;28;20022;-71
2023/03/29 04:25:18;;;;;;;31.08;16.38;;;5.00;99.90;;;;;;5004581;28;20052;-70
2023/03/29 04:27:45;;;;;;;33.72;17.17;;;5.00;99.90;;;;;;5004239;28;20121;-72
2023/03/29 04:30:11;;;;;;;37.63;16.90;;;5.00;99.90;;;;;;5004863;28;20348;-71
2023/03/29 04:32:37;;;;;;;33.47;16.35;;;5.00;99.90;;;;;;5004915;28;20022;-70
2023/03/29 04:35:03;;;;;;;35.38;17.33;;;5.00;99.90;;;;;;5013947;28;20029;-70
2023/03/29 04:37:32;;;;;;;34.85;17.95;;;5.10;99.90;;;;;;5026686;28;20389;-71
2023/03/29 04:40:01;;;;;;;37.05;17.90;;;5.00;99.90;;;;;;5027924;28;20038;-71
2023/03/29 04:42:27;;;;;;;35.22;18.15;;;5.10;99.90;;;;;;5017520;28;20041;-70
2023/03/29 04:44:53;;;;;;;35.97;18.50;;;5.10;99.90;;;;;;5008121;28;20106;-71
2023/03/29 04:47:20;;;;;;;33.80;18.08;;;5.00;99.90;;;;;;5008140;28;20026;-71
2023/03/29 04:49:46;;;;;;;35.38;18.33;;;5.10;99.90;;;;;;5024671;28;20032;-71
2023/03/29 04:52:11;;;;;;;34.78;18.08;;;5.10;99.90;;;;;;5025781;28;20025;-71
2023/03/29 04:54:37;;;;;;;36.33;18.27;;;5.10;99.90;;;;;;5020071;28;20509;-70
2023/03/29 04:57:04;;;;;;;42.65;17.88;;;5.20;99.90;;;;;;5007928;28;20023;-71
2023/03/29 04:59:31;;;;;;;35.40;17.10;;;5.10;99.90;;;;;;5025890;28;20026;-71
2023/03/29 05:01:56;;;;;;;37.88;18.55;;;5.20;99.90;;;;;;5025957;28;20093;-70
2023/03/29 05:04:22;;;;;;;33.17;16.90;;;5.10;99.90;;;;;;5026633;28;20041;-71
2023/03/29 05:06:47;;;;;;;37.63;17.05;;;5.10;99.90;;;;;;5026152;28;20050;-71
2023/03/29 05:09:13;;;;;;;35.70;18.15;;;5.10;99.90;;;;;;5026959;28;20045;-71
2023/03/29 05:11:39;;;;;;;33.42;17.17;;;5.20;99.90;;;;;;5025907;28;20089;-70
2023/03/29 05:14:06;;;;;;;31.67;15.77;;;5.10;99.90;;;;;;5013562;28;20034;-69
2023/03/29 05:16:33;;;;;;;29.98;16.02;;;5.10;99.90;;;;;;5016631;28;20034;-70
2023/03/29 05:18:59;;;;;;;31.48;16.05;;;5.20;99.90;;;;;;5037501;28;20033;-70
2023/03/29 05:21:27;;;;;;;34.15;17.35;;;5.20;99.90;;;;;;5025659;28;20037;-70
2023/03/29 05:23:53;;;;;;;36.25;17.02;;;5.20;99.90;;;;;;5020634;28;20117;-70
2023/03/29 05:26:22;;;;;;;31.52;15.82;;;5.20;99.90;;;;;;5007411;28;20023;-70
2023/03/29 05:28:48;;;;;;;30.17;15.35;;;5.20;99.90;;;;;;5009342;28;20085;-70
2023/03/29 05:31:15;;;;;;;31.45;15.18;;;5.20;99.90;;;;;;5013696;28;20033;-70
2023/03/29 05:33:41;;;;;;;32.00;14.93;;;5.20;99.90;;;;;;5011090;28;20031;-70
2023/03/29 05:36:09;;;;;;;29.73;14.13;;;5.20;99.90;;;;;;5007413;28;20384;-70
2023/03/29 05:38:35;;;;;;;28.42;14.32;;;5.20;99.90;;;;;;5010656;28;20037;-70
2023/03/29 05:41:01;;;;;;;23.25;13.73;;;5.20;99.90;;;;;;5016266;28;20034;-70
2023/03/29 05:43:27;;;;;;;30.40;14.77;;;5.20;99.90;;;;;;5007155;28;20026;-71
2023/03/29 05:45:53;;;;;;;32.38;14.50;;;5.30;99.90;;;;;;5005538;28;20031;-70
2023/03/29 05:48:21;;;;;;;26.50;13.52;;;5.30;99.90;;;;;;5022136;28;20040;-70
2023/03/29 05:50:52;;;;;;;28.67;13.48;;;5.30;99.90;;;;;;5025682;28;20026;-71
2023/03/29 05:53:18;;;;;;;26.33;13.80;;;5.30;99.90;;;;;;5025863;28;20033;-70
2023/03/29 05:55:45;;;;;;;25.13;13.13;;;5.40;99.90;;;;;;5024028;28;20033;-70
2023/03/29 05:58:11;;;;;;;26.70;13.75;;;5.40;99.90;;;;;;5020922;28;20018;-70
2023/03/29 06:00:38;;;;;;;25.67;12.75;;;5.40;99.90;;;;;;5009722;28;20034;-70
2023/03/29 06:03:05;;;;;;;24.63;12.02;;;5.50;99.90;;;;;;5019435;28;20034;-70
2023/03/29 06:05:30;;;;;;;23.83;12.82;;;5.50;99.90;;;;;;5025904;28;20516;-69
2023/03/29 06:07:56;;;;;;;23.95;12.82;;;5.50;99.90;;;;;;5013784;28;20046;-70
2023/03/29 06:10:23;;;;;;;24.25;11.73;;;5.50;99.90;;;;;;5026095;28;20026;-70
2023/03/29 06:12:49;;;;;;;24.40;11.48;;;5.50;99.90;;;;;;5026063;28;20064;-70
2023/03/29 06:15:15;;;;;;;25.42;12.18;;;5.60;99.90;;;;;;5025804;28;20041;-70
2023/03/29 06:17:43;;;;;;;26.70;10.15;;;5.60;99.90;;;;;;5024742;28;20030;-69
2023/03/29 06:20:10;;;;;;;22.17;12.02;;;5.60;99.90;;;;;;5023100;28;20028;-71
2023/03/29 06:22:40;;;;;;;24.40;12.52;;;5.70;99.90;;;;;;5022417;28;20040;-70
2023/03/29 06:25:11;;;;;;;22.00;10.80;;;5.70;99.90;;;;;;5020658;28;20030;-70
2023/03/29 06:27:36;;;;;;;18.02;9.25;;;5.70;99.90;;;;;;5006311;28;20022;-69
2023/03/29 06:30:03;;;;;;;23.60;11.15;;;5.80;99.90;;;;;;5006268;28;20019;-70
2023/03/29 06:32:29;;;;;;;19.50;10.50;;;5.80;99.90;;;;;;5004602;28;20113;-70
2023/03/29 06:34:55;;;;;;;20.35;10.82;;;5.90;99.90;;;;;;5006047;28;20379;-71
2023/03/29 06:37:22;;;;;;;20.17;10.80;;;5.90;99.90;;;;;;5006077;28;20022;-70
2023/03/29 06:39:51;;;;;;;21.33;9.88;;;5.90;99.90;;;;;;5024408;28;20089;-71
2023/03/29 06:42:21;;;;;;;19.73;10.68;;;6.00;99.90;;;;;;5025241;28;20034;-71
2023/03/29 06:44:48;;;;;;;17.75;9.50;;;5.90;99.90;;;;;;5025619;28;20057;-71
2023/03/29 06:47:14;;;;;;;21.33;10.48;;;6.10;99.90;;;;;;5025659;28;20028;-70
2023/03/29 06:49:40;;;;;;;19.33;9.80;;;6.00;99.90;;;;;;5025826;28;20029;-70
2023/03/29 06:52:06;;;;;;;19.00;9.63;;;6.00;99.90;;;;;;5025505;28;20022;-70
2023/03/29 06:54:32;;;;;;;18.67;9.93;;;6.00;99.90;;;;;;5024099;28;20049;-70
2023/03/29 06:56:58;;;;;;;18.30;9.63;;;6.00;99.90;;;;;;5015929;28;20033;-71
2023/03/29 06:59:24;;;;;;;17.67;9.38;;;6.00;99.90;;;;;;5015147;28;20101;-71
2023/03/29 07:01:52;;;;;;;17.48;9.75;;;6.20;99.90;;;;;;5023777;28;20037;-71
2023/03/29 07:04:19;;;;;;;29.20;12.48;;;6.10;99.90;;;;;;5017993;28;20485;-71
2023/03/29 07:06:47;;;;;;;20.67;9.25;;;6.10;99.90;;;;;;5013955;28;20026;-70
2023/03/29 07:09:15;;;;;;;21.80;9.45;;;6.20;99.90;;;;;;5016164;28;20045;-70
2023/03/29 07:11:41;;;;;;;17.60;9.15;;;6.20;99.90;;;;;;5006285;28;20037;-70
2023/03/29 07:14:07;;;;;;;17.38;8.73;;;6.20;99.90;;;;;;5018744;28;20029;-70
2023/03/29 07:16:36;;;;;;;16.80;9.70;;;6.30;99.90;;;;;;5022441;28;20461;-69
2023/03/29 07:19:02;;;;;;;18.65;9.00;;;6.30;99.90;;;;;;5023327;28;20026;-70
2023/03/29 07:21:29;;;;;;;15.32;8.90;;;6.30;99.90;;;;;;5017257;28;20042;-70
2023/03/29 07:23:57;;;;;;;20.67;8.93;;;6.30;99.90;;;;;;5017379;28;20091;-71
2023/03/29 07:26:23;;;;;;;17.73;9.02;;;6.40;99.90;;;;;;5019398;28;20038;-71
2023/03/29 07:28:49;;;;;;;17.35;9.18;;;6.30;99.90;;;;;;5016177;28;20047;-71
2023/03/29 07:31:16;;;;;;;19.35;8.80;;;6.30;99.90;;;;;;5017993;28;20030;-71
2023/03/29 07:33:43;;;;;;;16.75;8.68;;;6.40;99.90;;;;;;5021406;28;20344;-72
2023/03/29 07:36:09;;;;;;;15.88;8.77;;;6.40;99.90;;;;;;5021073;28;20014;-71
2023/03/29 07:38:35;;;;;;;17.15;8.75;;;6.50;99.90;;;;;;5023697;28;20434;-70
2023/03/29 07:41:04;;;;;;;16.35;8.18;;;6.40;99.90;;;;;;5023662;28;20047;-70
2023/03/29 07:43:29;;;;;;;21.13;9.43;;;6.50;99.90;;;;;;5016473;28;20026;-70
2023/03/29 07:45:57;;;;;;;20.45;9.18;;;6.60;99.90;;;;;;5015611;28;20095;-70
2023/03/29 07:48:24;;;;;;;14.75;7.57;;;6.70;99.90;;;;;;5019725;28;20045;-69
2023/03/29 07:50:49;;;;;;;17.60;8.80;;;6.70;99.90;;;;;;5024105;28;20026;-71
2023/03/29 07:53:15;;;;;;;15.13;8.98;;;6.70;99.90;;;;;;5017762;28;20049;-71
2023/03/29 07:55:45;;;;;;;17.38;7.93;;;6.70;99.90;;;;;;5014667;28;20026;-71
2023/03/29 07:58:13;;;;;;;15.88;8.32;;;6.80;99.90;;;;;;5038885;28;20428;-71
2023/03/29 08:00:38;;;;;;;16.92;8.95;;;6.90;99.90;;;;;;5015520;28;20057;-71
2023/03/29 08:03:04;;;;;;;18.65;8.55;;;6.90;99.90;;;;;;5024489;28;20061;-71
2023/03/29 08:05:30;;;;;;;15.35;9.43;;;6.90;99.90;;;;;;5013750;28;20064;-70
2023/03/29 08:07:56;;;;;;;16.58;9.15;;;7.00;99.90;;;;;;5024291;28;20041;-71
2023/03/29 08:10:21;;;;;;;17.48;9.25;;;7.00;99.90;;;;;;5024218;28;20025;-71
2023/03/29 08:12:49;;;;;;;18.52;9.15;;;7.00;99.90;;;;;;5019317;28;20071;-69
2023/03/29 08:15:15;;;;;;;20.38;9.75;;;6.90;99.90;;;;;;5008583;28;20023;-72
2023/03/29 08:17:41;;;;;;;19.20;10.38;;;7.00;99.90;;;;;;5012588;28;20110;-72
2023/03/29 08:20:09;;;;;;;23.85;10.90;;;7.00;99.90;;;;;;5024069;28;20026;-70
2023/03/29 08:22:35;;;;;;;21.20;10.38;;;6.90;99.90;;;;;;5008507;28;20043;-70
2023/03/29 08:25:03;;;;;;;24.05;11.18;;;6.80;99.90;;;;;;5027024;28;20063;-70
2023/03/29 08:27:29;;;;;;;22.65;11.73;;;6.80;99.90;;;;;;5017441;28;20022;-71
2023/03/29 08:29:54;;;;;;;19.70;11.40;;;6.80;99.90;;;;;;5037126;28;20085;-71
2023/03/29 08:32:20;;;;;;;25.88;12.20;;;6.80;99.90;;;;;;5028967;28;20030;-71
2023/03/29 08:34:45;;;;;;;19.98;10.10;;;6.80;99.90;;;;;;5017672;28;20026;-72
2023/03/29 08:37:12;;;;;;;21.58;11.10;;;7.00;99.90;;;;;;5025936;28;20029;-72
2023/03/29 08:39:37;;;;;;;21.73;10.20;;;7.00;99.90;;;;;;5024372;28;20034;-72
2023/03/29 08:42:32;;;;;;;22.10;10.70;;;7.00;99.90;;;;;;5018409;28;20045;-71
2023/03/29 08:45:04;;;;;;;21.58;10.25;;;7.10;99.90;;;;;;5011345;28;20034;-69
2023/03/29 08:47:42;;;;;;;26.58;11.15;;;7.10;99.90;;;;;;5019716;28;20053;-71
2023/03/29 08:50:10;;;;;;;26.75;11.50;;;7.10;99.90;;;;;;5010477;28;20061;-71
2023/03/29 08:52:51;;;;;;;17.50;9.88;;;7.20;99.90;;;;;;5016228;28;20029;-70
2023/03/29 08:55:44;;;;;;;20.77;11.00;;;7.30;99.90;;;;;;5018007;28;20049;-70
2023/03/29 08:58:24;;;;;;;21.58;9.85;;;7.30;99.90;;;;;;5006401;28;20049;-69
2023/03/29 09:00:53;;;;;;;24.02;11.48;;;7.30;99.90;;;;;;5022786;28;20034;-71
2023/03/29 09:03:23;;;;;;;23.52;10.80;;;7.40;99.90;;;;;;5020510;28;20335;-70
2023/03/29 09:06:11;;;;;;;22.27;10.68;;;7.30;99.90;;;;;;5020736;28;20026;-70
2023/03/29 09:08:46;;;;;;;25.10;11.02;;;7.50;99.90;;;;;;5041863;28;20140;-70
2023/03/29 09:11:25;;;;;;;23.58;11.98;;;7.50;99.90;;;;;;5027346;28;20112;-70
2023/03/29 09:14:02;;;;;;;21.02;10.90;;;7.60;99.90;;;;;;5025316;28;20095;-71
2023/03/29 09:17:02;;;;;;;22.98;11.23;;;7.70;99.90;;;;;;5024490;28;20478;-69
2023/03/29 09:19:55;;;;;;;24.67;13.30;;;7.80;99.90;;;;;;5022070;28;20030;-70
2023/03/29 09:22:40;;;;;;;30.30;12.85;;;7.90;99.90;;;;;;5022244;28;20038;-69
2023/03/29 09:25:20;;;;;;;28.48;15.13;;;7.90;99.90;;;;;;5018897;28;20033;-69
2023/03/29 09:28:03;;;;;;;27.85;14.52;;;8.00;99.90;;;;;;5007687;28;20034;-71
2023/03/29 09:30:41;;;;;;;29.52;14.98;;;8.10;99.90;;;;;;5017941;28;20030;-71
2023/03/29 09:33:07;;;;;;;32.63;16.77;;;8.20;99.90;;;;;;5025604;28;20030;-70
2023/03/29 09:35:43;;;;;;;35.15;16.92;;;8.20;99.90;;;;;;5026947;28;20028;-70
2023/03/29 09:38:16;;;;;;;34.45;16.52;;;8.30;99.90;;;;;;5021347;28;20033;-71
2023/03/29 09:40:48;;;;;;;31.92;15.20;;;8.30;99.90;;;;;;5018392;28;20032;-71
2023/03/29 09:43:17;;;;;;;45.53;22.75;;;8.40;99.90;;;;;;5015795;28;20022;-70
2023/03/29 09:45:48;;;;;;;60.72;28.60;;;8.40;99.90;;;;;;5020040;28;20025;-71
2023/03/29 09:48:17;;;;;;;50.25;26.38;;;8.40;99.90;;;;;;5007236;28;20030;-71
2023/03/29 09:50:45;;;;;;;45.67;21.90;;;8.40;99.90;;;;;;5009567;28;20072;-69
2023/03/29 09:53:14;;;;;;;43.45;24.23;;;8.40;99.90;;;;;;5021278;28;20026;-71
2023/03/29 09:55:42;;;;;;;51.90;26.23;;;8.40;99.90;;;;;;5025186;28;20030;-71
2023/03/29 09:58:17;;;;;;;47.38;24.15;;;8.30;99.90;;;;;;5025792;28;20022;-71
2023/03/29 10:00:43;;;;;;;50.47;25.52;;;8.30;99.90;;;;;;5026567;28;20037;-71
2023/03/29 10:03:20;;;;;;;49.55;26.13;;;8.30;99.90;;;;;;5026645;28;20018;-72
2023/03/29 10:05:48;;;;;;;50.17;24.75;;;8.30;99.90;;;;;;5026263;28;20028;-69
2023/03/29 10:08:28;;;;;;;36.30;18.58;;;8.30;99.90;;;;;;5015749;28;20112;-70
2023/03/29 10:10:56;;;;;;;32.22;18.20;;;8.30;99.90;;;;;;5006314;28;20076;-71
2023/03/29 10:13:31;;;;;;;31.75;16.52;;;8.30;99.90;;;;;;5022091;28;20018;-71
2023/03/29 10:16:15;;;;;;;32.33;17.20;;;8.30;99.90;;;;;;5024767;28;20048;-71
2023/03/29 10:18:42;;;;;;;29.92;17.15;;;8.30;99.90;;;;;;5021034;28;20109;-72
2023/03/29 10:21:13;;;;;;;32.75;18.70;;;8.30;99.90;;;;;;5024524;28;20039;-71
2023/03/29 10:23:38;;;;;;;37.50;20.30;;;8.30;99.90;;;;;;5025137;28;20389;-71
2023/03/29 10:26:10;;;;;;;48.90;25.20;;;8.30;99.90;;;;;;5024470;28;20515;-71
2023/03/29 10:28:36;;;;;;;46.83;25.10;;;8.40;99.90;;;;;;5026352;28;20063;-71
2023/03/29 10:31:04;;;;;;;48.25;25.52;;;8.40;99.90;;;;;;5031519;28;20029;-70
2023/03/29 10:33:33;;;;;;;57.45;27.85;;;8.40;99.90;;;;;;5043987;28;20033;-70
2023/03/29 10:36:01;;;;;;;56.90;27.45;;;8.40;99.90;;;;;;5019995;28;20030;-72
2023/03/29 10:38:28;;;;;;;64.38;29.63;;;8.40;99.90;;;;;;5018738;28;20030;-71
2023/03/29 10:41:02;;;;;;;50.50;25.25;;;8.50;99.90;;;;;;5024248;28;20170;-68
2023/03/29 10:43:36;;;;;;;41.70;22.00;;;8.70;99.90;;;;;;5024347;28;20022;-71
2023/03/29 10:46:09;;;;;;;43.35;22.42;;;8.80;99.90;;;;;;5020047;28;20033;-70
2023/03/29 10:48:35;;;;;;;40.08;23.15;;;8.90;99.90;;;;;;5021182;28;20540;-70
2023/03/29 10:51:04;;;;;;;35.08;20.92;;;8.90;99.90;;;;;;5011113;28;20030;-71
2023/03/29 10:53:34;;;;;;;45.15;21.80;;;9.00;99.90;;;;;;5012593;28;20484;-68
2023/03/29 10:56:18;;;;;;;46.40;21.95;;;9.10;99.90;;;;;;5011714;28;20022;-69
2023/03/29 10:59:03;;;;;;;39.40;22.20;;;9.10;99.90;;;;;;5018521;28;20041;-70
2023/03/29 11:01:38;;;;;;;;;;;9.20;99.90;;;;;;5014526;28;20052;-72
2023/03/29 11:04:35;;;;;;;55.10;30.20;;;9.20;99.90;;;;;;5021305;28;19909;-69
2023/03/29 11:07:11;;;;;;;58.60;28.98;;;9.20;99.90;;;;;;5023566;28;20056;-71
2023/03/29 11:10:09;;;;;;;52.95;30.23;;;9.20;99.90;;;;;;5018444;28;20031;-72
2023/03/29 11:13:13;;;;;;;44.50;24.17;;;9.10;99.90;;;;;;5021274;28;20032;-70
2023/03/29 11:16:15;;;;;;;45.03;23.80;;;9.20;99.90;;;;;;5022381;28;20033;-73
2023/03/29 11:18:46;;;;;;;43.30;24.33;;;9.20;99.90;;;;;;5022361;28;20030;-71
2023/03/29 11:21:22;;;;;;;37.88;20.30;;;9.30;99.90;;;;;;5019179;28;20034;-72
2023/03/29 11:24:09;;;;;;;36.38;21.60;;;9.30;99.90;;;;;;5020216;28;20451;-72
2023/03/29 11:26:53;;;;;;;34.22;19.55;;;9.40;99.90;;;;;;5020770;28;20029;-71
2023/03/29 11:29:34;;;;;;;35.50;19.73;;;9.40;99.90;;;;;;5023583;28;20026;-71
2023/03/29 11:32:13;;;;;;;35.05;19.23;;;9.50;99.90;;;;;;5023274;28;20030;-70
2023/03/29 11:34:58;;;;;;;36.80;21.80;;;9.60;99.90;;;;;;5015040;28;20033;-71
2023/03/29 11:37:31;;;;;;;38.83;21.00;;;9.70;99.90;;;;;;5022738;28;20089;-70
2023/03/29 11:40:07;;;;;;;32.87;21.33;;;9.70;99.90;;;;;;5020842;28;20024;-71
2023/03/29 11:42:37;;;;;;;52.20;31.25;;;9.80;99.90;;;;;;5017953;28;20042;-70
2023/03/29 11:45:04;;;;;;;67.15;35.65;;;9.80;99.90;;;;;;5020003;28;20026;-71
2023/03/29 11:47:38;;;;;;;62.25;34.88;;;9.80;99.90;;;;;;5023940;28;20018;-69
2023/03/29 11:50:26;;;;;;;61.33;32.90;;;9.70;99.90;;;;;;5026874;28;20014;-70
2023/03/29 11:52:57;;;;;;;60.60;30.65;;;9.80;99.90;;;;;;5024724;28;20030;-68
2023/03/29 11:55:25;;;;;;;59.17;30.77;;;9.90;99.90;;;;;;5027910;28;20022;-71
2023/03/29 11:58:05;;;;;;;44.92;26.30;;;10.00;99.90;;;;;;5027807;28;20049;-71
2023/03/29 12:00:36;;;;;;;40.97;21.30;;;10.00;99.90;;;;;;5018932;28;20093;-71
2023/03/29 12:03:08;;;;;;;45.60;24.77;;;10.10;99.90;;;;;;5011749;28;20034;-71
2023/03/29 12:05:39;;;;;;;47.28;25.20;;;10.30;99.90;;;;;;5025719;28;20579;-70
2023/03/29 12:08:27;;;;;;;43.22;27.20;;;10.50;99.90;;;;;;5010780;28;20042;-70
2023/03/29 12:11:23;;;;;;;32.97;18.77;;;10.80;99.90;;;;;;5010585;28;20146;-68
2023/03/29 12:13:55;;;;;;;31.33;18.13;;;11.00;99.90;;;;;;5011035;28;20129;-70
2023/03/29 12:16:31;;;;;;;35.80;19.30;;;11.10;99.90;;;;;;5017145;28;20034;-71
2023/03/29 12:19:03;;;;;;;34.58;21.00;;;11.10;99.90;;;;;;5013154;28;20471;-71
2023/03/29 12:21:31;;;;;;;43.50;24.42;;;11.20;99.90;;;;;;5026751;28;20030;-70
2023/03/29 12:23:57;;;;;;;35.67;20.77;;;11.20;99.90;;;;;;5012735;28;20050;-71
2023/03/29 12:27:04;;;;;;;31.05;17.38;;;11.30;99.90;;;;;;5020445;28;20042;-70
2023/03/29 12:29:56;;;;;;;29.88;17.48;;;11.40;99.90;;;;;;5000616;28;20065;-71
2023/03/29 12:32:43;;;;;;;32.53;16.52;;;11.30;99.90;;;;;;5026959;28;20036;-71
2023/03/29 12:35:27;;;;;;;28.65;17.70;;;11.20;99.90;;;;;;5021277;28;20030;-73
2023/03/29 12:38:19;;;;;;;30.88;16.55;;;11.20;99.90;;;;;;5031352;28;20053;-71
2023/03/29 12:40:47;;;;;;;32.13;17.45;;;11.10;99.90;;;;;;5019144;28;20038;-72
2023/03/29 12:43:21;;;;;;;45.53;25.27;;;11.00;99.90;;;;;;5010403;28;20026;-73
2023/03/29 12:45:48;;;;;;;40.43;24.70;;;11.00;99.90;;;;;;5019033;28;20112;-73
2023/03/29 12:48:21;;;;;;;33.45;19.92;;;11.10;99.90;;;;;;5025908;28;20827;-70
2023/03/29 12:50:52;;;;;;;32.75;19.33;;;11.20;99.90;;;;;;5027063;28;20032;-71
2023/03/29 12:53:23;;;;;;;30.55;19.58;;;11.20;99.90;;;;;;5023546;28;20422;-72
2023/03/29 12:56:10;;;;;;;28.58;17.67;;;11.30;99.90;;;;;;5007151;28;20030;-70
2023/03/29 12:58:39;;;;;;;27.02;18.05;;;11.30;99.90;;;;;;5006052;28;20114;-70
2023/03/29 13:01:06;;;;;;;31.48;18.95;;;11.30;99.90;;;;;;5007477;28;20050;-70